Laketown, Wisconsin
Current Conditions -  °F | °C
As of 3:35 AM on Thursday 18 Dec 2014 (Local Time) from KROS Reporting Station
Overcast Overcast  
Wind Chill: 17°   Ceiling: 1800
Heat Index: 17°   Visibility: 10mi
Dew Point: 14°   Wind: 0mph
Humidity: 87%   Direction: NA
Pressure: 30.33"   Gusts: NA
Location:  45.5664°N, 92.6511°W
Report Text: KROS 180935Z AUTO 00000KT 10SM OVC018 M08/M10 A3033 RMK AO2 T10811099
Loading
Personal Weather Stations






























Interactive Weather Map New forecast layout! Learn more

10-Day Weather Forecast

Advertisements
Track Severe Weather on mobile